Maple Mount, KY (42356)

5:30 PM CST on February 28, 2015 (GMT -0600)
Diamond Lake Resort | Change Station
CLOSE
Current Station
Personal Weather Station
Location: Owensboro, KY
Elevation: 466 ft
Nearby Weather Stations

Elev 466 ft 37.64 °N, 87.39 °W | Updated 12 seconds ago

Overcast
Overcast
36.7 °F
Feels Like 37 °F
N
0.9
Wind Variable Wind from WNW
Gusts 2.5 mph

Today
High -- | Low -- °F
--% Chance of Precip.
Yesterday
High -- | Low -- °F
Precip. -- in
6:22 AM 5:41 PM
Waxing Gibbous, 81% visible
Pressure 30.50 in
Visibility 10.0 miles
Clouds Overcast 7000 ft
Windchill 37 °F
Dew Point 13 °F
Humidity 37%
Rainfall 0.00 in
Snow Depth Not available.
UV 0 out of 12
Pollen .20 out of 12
Air Quality Not available.
Flu Activity Not available.
METAR KOWB 282256Z 11008KT 10SM OVC070 02/M08 A3048 RMK AO2 T00221083 SLP327

More Conditions Fewer Conditions

Pressure 30.50 in
Visibility 10.0 miles
Clouds Overcast 7000 ft
Windchill 37 °F
Dew Point 13 °F
Humidity 37%
Rainfall 0.00 in
Snow Depth Not available.
UV 0 out of 12
Pollen .20 out of 12
Air Quality Not available.
Flu Activity Not available.
METAR KOWB 282256Z 11008KT 10SM OVC070 02/M08 A3048 RMK AO2 T00221083 SLP327

More Conditions Fewer Conditions

10-Day Weather Forecast

Almanac

Astronomy

Feb. 28, 2015 Rise Set
Actual Time
Civil Twilight
Nautical Twilight
Astronomical Twilight
Moon
Length of Visible Light
Length of Day
Tomorrow will be .
, % of the Moon is Illuminated

Today's Extremes

State Highs State Lows

Community

WunderPhotos

Upload Photos

1,801,176 photos uploaded!

WunderBlogs® & News

Nearby

Air Quality

  Air Quality AQ Index Pollutant
Not available.

Snow Depth

Station Depth Elevation

Earthquake Activity

City Distance Mag. Time & Date
Minimum magnitude displayed is 2.5.

Coastal Water Temperatures

Place Temperature

Nearby Weather Stations